Map

Track Data

SID SEASON NUMBER BASIN SUBBASIN NAME ISO_TIME NATURE LAT LON WMO_WIND WMO_PRES WMO_AGENCY TRACK_TYPE DIST2LAND LANDFALL IFLAG USA_AGENCY USA_ATCF_ID USA_LAT USA_LON USA_RECORD USA_STATUS USA_WIND USA_PRES USA_SSHS USA_R34_NE USA_R34_SE USA_R34_SW USA_R34_NW USA_R50_NE USA_R50_SE USA_R50_SW USA_R50_NW USA_R64_NE USA_R64_SE USA_R64_SW USA_R64_NW USA_POCI USA_ROCI USA_RMW USA_EYE TOKYO_LAT TOKYO_LON TOKYO_GRADE TOKYO_WIND TOKYO_PRES TOKYO_R50_DIR TOKYO_R50_LONG TOKYO_R50_SHORT TOKYO_R30_DIR TOKYO_R30_LONG TOKYO_R30_SHORT TOKYO_LAND CMA_LAT CMA_LON CMA_CAT CMA_WIND CMA_PRES HKO_LAT HKO_LON HKO_CAT HKO_WIND HKO_PRES NEWDELHI_LAT NEWDELHI_LON NEWDELHI_GRADE NEWDELHI_WIND NEWDELHI_PRES NEWDELHI_CI NEWDELHI_DP NEWDELHI_POCI REUNION_LAT REUNION_LON REUNION_TYPE REUNION_WIND REUNION_PRES REUNION_TNUM REUNION_CI REUNION_RMW REUNION_R34_NE REUNION_R34_SE REUNION_R34_SW REUNION_R34_NW REUNION_R50_NE REUNION_R50_SE REUNION_R50_SW REUNION_R50_NW REUNION_R64_NE REUNION_R64_SE REUNION_R64_SW REUNION_R64_NW BOM_LAT BOM_LON BOM_TYPE BOM_WIND BOM_PRES BOM_TNUM BOM_CI BOM_RMW BOM_R34_NE BOM_R34_SE BOM_R34_SW BOM_R34_NW BOM_R50_NE BOM_R50_SE BOM_R50_SW BOM_R50_NW BOM_R64_NE BOM_R64_SE BOM_R64_SW BOM_R64_NW BOM_ROCI BOM_POCI BOM_EYE BOM_POS_METHOD BOM_PRES_METHOD NADI_LAT NADI_LON NADI_CAT NADI_WIND NADI_PRES WELLINGTON_LAT WELLINGTON_LON WELLINGTON_WIND WELLINGTON_PRES DS824_LAT DS824_LON DS824_STAGE DS824_WIND DS824_PRES TD9636_LAT TD9636_LON TD9636_STAGE TD9636_WIND TD9636_PRES TD9635_LAT TD9635_LON TD9635_WIND TD9635_PRES TD9635_ROCI NEUMANN_LAT NEUMANN_LON NEUMANN_CLASS NEUMANN_WIND NEUMANN_PRES MLC_LAT MLC_LON MLC_CLASS MLC_WIND MLC_PRES USA_GUST BOM_GUST BOM_GUST_PER REUNION_GUST REUNION_GUST_PER USA_SEAHGT USA_SEARAD_NE USA_SEARAD_SE USA_SEARAD_SW USA_SEARAD_NW STORM_SPEED STORM_DIR
1908168N21089 1908 21 NI BB NOT_NAMED 1908-06-16 00:00:00 TS 20.7000 88.5000 main 100 100 _________O____ -1 20.7000 88.5000 TC 34 0 0
1908168N21089 1908 21 NI BB NOT_NAMED 1908-06-16 03:00:00 TS 20.7000 88.5000 main 100 100 _________PO___ -1 20.7000 88.5000 TC 36 20.7000 88.5000 2 0 0
1908168N21089 1908 21 NI BB NOT_NAMED 1908-06-16 06:00:00 TS 20.7044 88.5056 main 100 100 _________OP___ -1 20.7000 88.5000 TC 39 20.7110 88.5140 2 0 0
1908168N21089 1908 21 NI BB NOT_NAMED 1908-06-16 09:00:00 TS 20.7075 88.5096 main 100 100 _________PP___ -1 20.7000 88.5000 TC 42 20.7176 88.5224 2 0 0
1908168N21089 1908 21 NI BB NOT_NAMED 1908-06-16 12:00:00 TS 20.7077 88.5098 main 100 100 _________OP___ -1 20.7000 88.5000 TC 45 20.7154 88.5196 2 0 0
1908168N21089 1908 21 NI BB NOT_NAMED 1908-06-16 15:00:00 TS 20.7000 88.5000 main 100 100 _________PO___ -1 20.7000 88.5000 TC 45 20.7000 88.5000 3 0 0
1908168N21089 1908 21 NI BB NOT_NAMED 1908-06-16 18:00:00 TS 20.6857 88.4818 main 100 100 _________OP___ -1 20.7000 88.5000 TC 45 20.6715 88.4636 3 1 228
1908168N21089 1908 21 NI BB NOT_NAMED 1908-06-16 21:00:00 TS 20.6624 88.4552 main 100 100 _________PP___ -1 20.6775 88.4775 TC 45 20.6473 88.4328 3 0 0
1908168N21089 1908 21 NI BB NOT_NAMED 1908-06-17 00:00:00 TS 20.6748 88.4678 main 100 89 _________OP___ -1 20.7000 88.5000 TC 45 20.6495 88.4356 3 1 42
1908168N21089 1908 21 NI BB NOT_NAMED 1908-06-17 03:00:00 TS 20.7600 88.5525 main 90 80 _________PO___ -1 20.8199 88.6051 TC 45 20.7000 88.5000 3 3 49
1908168N21089 1908 21 NI BB NOT_NAMED 1908-06-17 06:00:00 TS 20.9003 88.7442 main 80 55 _________OP___ -1 21.0000 88.8000 TC 45 20.8007 88.6884 3 5 55
1908168N21089 1908 21 NI BB NOT_NAMED 1908-06-17 09:00:00 TS 21.0654 89.0209 main 55 39 _________PP___ -1 21.1777 89.1074 TC 45 20.9531 88.9344 3 6 54
1908168N21089 1908 21 NI BB NOT_NAMED 1908-06-17 12:00:00 TS 21.2769 89.2942 main 39 22 _________OP___ -1 21.4000 89.4000 TC 45 21.1538 89.1883 3 6 42
1908168N21089 1908 21 NI BB NOT_NAMED 1908-06-17 15:00:00 TS 21.5387 89.4725 main 24 0 _________PO___ -1 21.6774 89.5451 TC 41 21.4000 89.4000 3 6 23
1908168N21089 1908 21 NI BB NOT_NAMED 1908-06-17 18:00:00 TS 21.8551 89.5543 main 0 0 _________OP___ -1 22.0000 89.6000 TC 37 21.7101 89.5086 3 7 9
1908168N21089 1908 21 NI BB NOT_NAMED 1908-06-17 21:00:00 TS 22.2149 89.5914 main 0 0 _________PP___ -1 22.3725 89.6151 TC 33 22.0573 89.5677 3 7 3
1908168N21089 1908 21 NI BB NOT_NAMED 1908-06-18 00:00:00 TS 22.5504 89.5965 main 0 0 _________OP___ -1 22.7000 89.6000 TC 30 22.4008 89.5930 3 6 0
1908168N21089 1908 21 NI BB NOT_NAMED 1908-06-18 03:00:00 TS 22.7900 89.6000 main 0 0 _________PO___ -1 22.8800 89.6000 TC 30 22.7000 89.6000 1 4 0
1908168N21089 1908 21 NI BB NOT_NAMED 1908-06-18 06:00:00 TS 22.9461 89.6093 main 0 0 _________OP___ -1 23.0000 89.6000 TC 30 22.8922 89.6186 1 3 0
1908168N21089 1908 21 NI BB NOT_NAMED 1908-06-18 09:00:00 TS 23.0862 89.6150 main 0 0 _________PP___ -1 23.1350 89.6075 TC 30 23.0375 89.6226 1 3 0
1908168N21089 1908 21 NI BB NOT_NAMED 1908-06-18 12:00:00 TS 23.2320 89.6077 main 0 0 _________OP___ -1 23.3000 89.6000 TC 30 23.1640 89.6154 1 3 354
1908168N21089 1908 21 NI BB NOT_NAMED 1908-06-18 15:00:00 TS 23.4250 89.5750 main 0 0 _________PO___ -1 23.5500 89.5501 TC 30 23.3000 89.6000 1 4 350
1908168N21089 1908 21 NI BB NOT_NAMED 1908-06-18 18:00:00 TS 23.6591 89.5391 main 0 0 _________OP___ -1 23.8000 89.5000 TC 30 23.5181 89.5782 1 4 353
1908168N21089 1908 21 NI BB NOT_NAMED 1908-06-18 21:00:00 TS 23.8663 89.5213 main 0 0 _________PP___ -1 23.9875 89.4925 TC 30 23.7450 89.5501 1 4 0
1908168N21089 1908 21 NI BB NOT_NAMED 1908-06-19 00:00:00 TS 24.0247 89.5110 main 0 0 _________OP___ -1 24.1000 89.5000 TC 30 23.9494 89.5220 1 2 0
1908168N21089 1908 21 NI BB NOT_NAMED 1908-06-19 03:00:00 TS 24.1112 89.5000 main 0 0 _________PO___ -1 24.1225 89.5000 TC 30 24.1000 89.5000 1 1 354
1908168N21089 1908 21 NI BB NOT_NAMED 1908-06-19 06:00:00 TS 24.1287 89.4964 main 0 0 _________OP___ -1 24.1000 89.5000 TC 30 24.1575 89.4928 1 0 0
1908168N21089 1908 21 NI BB NOT_NAMED 1908-06-19 09:00:00 TS 24.1300 89.4962 main 0 0 _________PP___ -1 24.1000 89.5000 TC 30 24.1600 89.4925 1 0 0
1908168N21089 1908 21 NI BB NOT_NAMED 1908-06-19 12:00:00 TS 24.1162 89.4980 main 0 0 _________OP___ -1 24.1000 89.5000 TC 30 24.1325 89.4959 1 0 139
1908168N21089 1908 21 NI BB NOT_NAMED 1908-06-19 15:00:00 TS 24.1000 89.5000 main 0 0 _________PO___ -1 24.1000 89.5000 TC 30 24.1000 89.5000 1 0 0
1908168N21089 1908 21 NI BB NOT_NAMED 1908-06-19 18:00:00 TS 24.0919 89.5040 main 0 0 _________OP___ -1 24.1000 89.5000 TC 30 24.0837 89.5081 1 0 0
1908168N21089 1908 21 NI BB NOT_NAMED 1908-06-19 21:00:00 TS 24.0775 89.5112 main 0 0 _________PP___ -1 24.0850 89.5075 TC 30 24.0700 89.5149 1 0 0
1908168N21089 1908 21 NI BB NOT_NAMED 1908-06-20 00:00:00 TS 24.0856 89.5072 main 0 0 _________OP___ -1 24.1000 89.5000 TC 30 24.0712 89.5143 1 1 325
1908168N21089 1908 21 NI BB NOT_NAMED 1908-06-20 03:00:00 TS 24.1425 89.4788 main 0 0 _________PO___ -1 24.1850 89.4575 TC 30 24.1000 89.5000 1 2 336
1908168N21089 1908 21 NI BB NOT_NAMED 1908-06-20 06:00:00 TS 24.2437 89.4383 main 0 0 _________OP___ -1 24.3000 89.4000 TC 30 24.1875 89.4766 1 2 341
1908168N21089 1908 21 NI BB NOT_NAMED 1908-06-20 09:00:00 TS 24.3537 89.3975 main 0 0 _________PP___ -1 24.4075 89.3575 TC 30 24.2999 89.4376 1 2 337
1908168N21089 1908 21 NI BB NOT_NAMED 1908-06-20 12:00:00 TS 24.4562 89.3399 main 0 0 _________OP___ -1 24.5000 89.3000 TC 30 24.4125 89.3798 1 2 326
1908168N21089 1908 21 NI BB NOT_NAMED 1908-06-20 15:00:00 TS 24.5362 89.2575 main 0 0 _________PO___ -1 24.5725 89.2150 TC 30 24.5000 89.3000 1 2 302
1908168N21089 1908 21 NI BB NOT_NAMED 1908-06-20 18:00:00 TS 24.5664 89.1442 main 0 0 _________OP___ -1 24.6000 89.1000 TC 30 24.5329 89.1884 1 2 273
1908168N21089 1908 21 NI BB NOT_NAMED 1908-06-20 21:00:00 TS 24.5476 89.0037 main 0 0 _________PP___ -1 24.5575 88.9499 TC 30 24.5376 89.0574 1 3 258
1908168N21089 1908 21 NI BB NOT_NAMED 1908-06-21 00:00:00 TS 24.5118 88.8614 main 0 0 _________OP___ -1 24.5000 88.8000 TC 30 24.5235 88.9228 1 2 259
1908168N21089 1908 21 NI BB NOT_NAMED 1908-06-21 03:00:00 TS 24.5000 88.7425 main 0 0 _________PO___ -1 24.5000 88.6850 TC 30 24.5000 88.8000 1 2 264
1908168N21089 1908 21 NI BB NOT_NAMED 1908-06-21 06:00:00 TS 24.4931 88.6594 main 0 0 _________OP___ -1 24.5000 88.6000 TC 30 24.4862 88.7188 1 1 253
1908168N21089 1908 21 NI BB NOT_NAMED 1908-06-21 09:00:00 TS 24.4612 88.6038 main 0 0 _________PP___ -1 24.4575 88.5575 TC 30 24.4649 88.6500 1 1 235
1908168N21089 1908 21 NI BB NOT_NAMED 1908-06-21 12:00:00 TS 24.4181 88.5406 main 0 0 _________OP___ -1 24.4000 88.5000 TC 30 24.4362 88.5813 1 2 242
1908168N21089 1908 21 NI BB NOT_NAMED 1908-06-21 15:00:00 TS 24.3750 88.4287 main 0 0 _________PO___ -1 24.3500 88.3575 TC 30 24.4000 88.5000 1 2 248
1908168N21089 1908 21 NI BB NOT_NAMED 1908-06-21 18:00:00 TS 24.3324 88.3124 main 0 0 _________OP___ -1 24.3000 88.2000 TC 30 24.3567 88.3968 1 2 247
1908168N21089 1908 21 NI BB NOT_NAMED 1908-06-21 21:00:00 TS 24.2846 88.1989 main 0 0 _________PP___ -1 24.2500 88.0850 TC 30 24.3077 88.2749 1 2 244
1908168N21089 1908 21 NI BB NOT_NAMED 1908-06-22 00:00:00 TS 24.2366 88.0937 main 0 0 _________OP___ -1 24.2000 88.0000 TC 30 24.2548 88.1405 1 2 245
1908168N21089 1908 21 NI BB NOT_NAMED 1908-06-22 03:00:00 NR 24.2000 88.0000 main 0 __________O___ -1 TC 24.2000 88.0000 1 2 248

About IBTrACS Database

This database is a web-friendly format of International Best Track Archive for Climate Stewardship (IBTrACS), a global best track data archive curated by NOAA dating back to 1842.

Updated: 2021-11-26